Time;durP1;ratioP1;P1;durP2;ratioP2;P2;SDS_P1;SDS_P2;PMS_P1;PMS_P2;Temp;Humidity;BMP_temperature;BMP_pressure;BME280_temperature;BME280_humidity;BME280_pressure;Samples;Min_cycle;Max_cycle;Signal;HPM_P1;HPM_P2
2022/12/23 00:02:11;;;;;;;;;;;0.70;86.80;;;-151.14;100.00;62537.16;5033240;28;20112;-81
2022/12/23 00:04:39;;;;;;;;;;;0.70;86.80;;;-151.14;100.00;62537.16;5032814;28;19927;-81
2022/12/23 00:07:07;;;;;;;;;;;0.70;86.80;;;-151.14;100.00;62537.16;5016721;28;19921;-80
2022/12/23 00:09:35;;;;;;;;;;;0.70;86.90;;;-151.14;100.00;62537.16;5049789;28;19921;-81
2022/12/23 00:15:05;;;;;;;;;;;0.70;87.60;;;-151.14;100.00;62537.16;5016107;28;19927;-81
2022/12/23 00:17:33;;;;;;;;;;;0.70;86.70;;;-151.14;100.00;62537.16;5016330;28;19927;-81
2022/12/23 00:20:01;;;;;;;;;;;0.70;86.80;;;-151.14;100.00;62537.16;5016460;28;19928;-81
2022/12/23 00:25:14;;;;;;;;;;;0.70;86.90;;;-151.14;100.00;62537.16;5028732;28;20008;-81
2022/12/23 00:28:00;;;;;;;;;;;0.70;86.90;;;-151.14;100.00;62537.16;5016538;28;19928;-81
2022/12/23 00:30:28;;;;;;;;;;;0.70;87.00;;;-151.14;100.00;62537.16;5034205;28;19921;-81
2022/12/23 00:32:55;;;;;;;;;;;0.70;86.90;;;-151.14;100.00;62537.16;5016271;28;19921;-81
2022/12/23 00:35:23;;;;;;;;;;;0.70;87.00;;;-151.14;100.00;62537.16;4999345;28;19927;-81
2022/12/23 00:37:51;;;;;;;;;;;0.70;87.00;;;-151.14;100.00;62537.16;5016408;28;19928;-81
2022/12/23 00:43:06;;;;;;;;;;;0.70;87.00;;;-151.14;100.00;62537.16;5019622;28;20117;-81
2022/12/23 00:45:34;;;;;;;;;;;0.70;87.00;;;-151.14;100.00;62537.16;5018867;28;19927;-81
2022/12/23 00:50:50;;;;;;;;;;;0.70;87.00;;;-151.14;100.00;62537.16;5035937;28;19929;-81
2022/12/23 00:53:18;;;;;;;;;;;0.70;87.00;;;-151.14;100.00;62537.16;5053488;28;19921;-81
2022/12/23 00:55:47;;;;;;;;;;;0.70;87.00;;;-151.14;100.00;62537.16;5029930;28;20235;-81
2022/12/23 00:58:17;;;;;;;;;;;0.70;87.00;;;-151.14;100.00;62537.16;5015974;28;19921;-81
2022/12/23 01:06:16;;;;;;;;;;;0.70;87.00;;;-151.14;100.00;62537.16;5018940;28;20213;-81
2022/12/23 01:08:44;;;;;;;;;;;0.70;87.00;;;-151.14;100.00;62537.16;5035714;28;19921;-81
2022/12/23 01:11:12;;;;;;;;;;;0.70;87.00;;;-151.14;100.00;62537.16;5053179;28;19927;-80
2022/12/23 01:13:41;;;;;;;;;;;0.70;87.00;;;-151.14;100.00;62537.16;5019093;28;19920;-81
2022/12/23 01:16:10;;;;;;;;;;;0.70;87.00;;;-151.14;100.00;62537.16;5018600;28;19921;-81
2022/12/23 01:18:39;;;;;;;;;;;0.70;87.00;;;-151.14;100.00;62537.16;5035519;28;19927;-81
2022/12/23 01:21:08;;;;;;;;;;;0.70;87.00;;;-151.14;100.00;62537.16;5035229;28;19921;-81
2022/12/23 01:23:36;;;;;;;;;;;0.70;87.00;;;-151.14;100.00;62537.16;5035008;28;20120;-81
2022/12/23 01:26:05;;;;;;;;;;;0.70;86.90;;;-151.14;100.00;62537.16;5018270;28;19921;-81
2022/12/23 01:28:33;;;;;;;;;;;0.70;87.00;;;-151.14;100.00;62537.16;5034916;28;19927;-81
2022/12/23 01:31:03;;;;;;;;;;;0.70;87.00;;;-151.14;100.00;62537.16;5050025;28;19921;-81
2022/12/23 01:33:31;;;;;;;;;;;0.70;87.00;;;-151.14;100.00;62537.16;5015252;28;19921;-81
2022/12/23 01:36:00;;;;;;;;;;;0.70;86.90;;;-151.14;100.00;62537.16;5013828;28;19921;-80
2022/12/23 01:38:28;;;;;;;;;;;0.70;86.90;;;-151.14;100.00;62537.16;5015405;28;19922;-80
2022/12/23 01:40:56;;;;;;;;;;;0.70;87.00;;;-151.14;100.00;62537.16;5015292;28;19927;-81
2022/12/23 01:43:23;;;;;;;;;;;0.70;86.90;;;-151.14;100.00;62537.16;5015264;28;19927;-81
2022/12/23 01:45:51;;;;;;;;;;;0.70;86.90;;;-151.14;100.00;62537.16;4998673;28;19921;-81
2022/12/23 01:48:21;;;;;;;;;;;0.70;87.00;;;-151.14;100.00;62537.16;5018204;28;19921;-81
2022/12/23 01:50:51;;;;;;;;;;;0.70;87.00;;;-151.14;100.00;62537.16;5035127;28;19920;-81
2022/12/23 01:53:20;;;;;;;;;;;0.70;87.00;;;-151.14;100.00;62537.16;5051405;28;19920;-81
2022/12/23 01:55:49;;;;;;;;;;;0.70;86.90;;;-151.14;100.00;62537.16;5017948;28;19928;-81
2022/12/23 01:58:19;;;;;;;;;;;0.70;86.90;;;-151.14;100.00;62537.16;5052511;28;19927;-81
2022/12/23 02:03:43;;;;;;;;;;;0.70;86.90;;;-151.14;100.00;62537.16;5018199;28;20224;-81
2022/12/23 02:12:24;;;;;;;;;;;0.70;86.90;;;-151.14;100.00;62537.16;4985252;28;19921;-81
2022/12/23 02:17:54;;;;;;;;;;;0.70;86.80;;;-151.14;100.00;62537.16;4995292;28;19950;-81
2022/12/23 02:20:57;;;;;;;;;;;0.70;86.80;;;-151.14;100.00;62537.16;4995509;28;19925;-81
2022/12/23 02:24:08;;;;;;;;;;;0.70;86.90;;;-151.14;100.00;62537.16;4993123;28;19928;-81
2022/12/23 02:27:00;;;;;;;;;;;0.70;86.80;;;-151.14;100.00;62537.16;4994507;28;20085;-80
2022/12/23 02:29:55;;;;;;;;;;;0.70;86.80;;;-151.14;100.00;62537.16;4995247;28;19936;-81
2022/12/23 02:32:26;;;;;;;;;;;0.70;86.80;;;-151.14;100.00;62537.16;5006609;28;20119;-81
2022/12/23 02:34:56;;;;;;;;;;;0.70;86.90;;;-151.14;100.00;62537.16;5017117;28;19921;-81
2022/12/23 02:37:25;;;;;;;;;;;0.70;86.90;;;-151.14;100.00;62537.16;5017853;28;20101;-81
2022/12/23 02:39:54;;;;;;;;;;;0.70;86.90;;;-151.14;100.00;62537.16;5034381;28;20254;-81
2022/12/23 02:42:23;;;;;;;;;;;0.70;86.90;;;-151.14;100.00;62537.16;5034334;28;19927;-81
2022/12/23 02:44:54;;;;;;;;;;;0.70;86.90;;;-151.14;100.00;62537.16;5033783;28;19921;-81
2022/12/23 02:47:24;;;;;;;;;;;0.70;87.00;;;-151.14;100.00;62537.16;5033599;28;19921;-81
2022/12/23 02:49:53;;;;;;;;;;;0.70;86.90;;;-151.14;100.00;62537.16;5017851;28;19921;-81
2022/12/23 02:52:22;;;;;;;;;;;0.70;86.90;;;-151.14;100.00;62537.16;5015085;28;19933;-81
2022/12/23 02:54:51;;;;;;;;;;;0.70;86.90;;;-151.14;100.00;62537.16;5013635;28;19928;-80
2022/12/23 02:57:21;;;;;;;;;;;0.70;86.90;;;-151.14;100.00;62537.16;5014274;28;19922;-80
2022/12/23 02:59:50;;;;;;;;;;;0.70;86.90;;;-151.14;100.00;62537.16;5014412;28;19921;-81
2022/12/23 03:02:18;;;;;;;;;;;0.70;86.90;;;-151.14;100.00;62537.16;5030467;28;19928;-81
2022/12/23 03:04:47;;;;;;;;;;;0.70;86.90;;;-151.14;100.00;62537.16;5013583;28;20121;-80
2022/12/23 03:07:17;;;;;;;;;;;0.70;86.90;;;-151.14;100.00;62537.16;5013786;28;19921;-80
2022/12/23 03:09:48;;;;;;;;;;;0.70;87.00;;;-151.14;100.00;62537.16;4978533;28;20117;-81
2022/12/23 03:12:20;;;;;;;;;;;0.70;86.90;;;-151.14;100.00;62537.16;4978083;28;19921;-80
2022/12/23 03:14:59;;;;;;;;;;;0.70;86.90;;;-151.14;100.00;62537.16;4993739;28;19936;-80
2022/12/23 03:17:35;;;;;;;;;;;0.70;86.90;;;-151.14;100.00;62537.16;4994645;28;19927;-80
2022/12/23 03:20:09;;;;;;;;;;;0.70;87.00;;;-151.14;100.00;62537.16;5017245;28;19987;-80
2022/12/23 03:22:39;;;;;;;;;;;0.70;87.00;;;-151.14;100.00;62537.16;5017116;28;19955;-81
2022/12/23 03:25:09;;;;;;;;;;;0.70;87.00;;;-151.14;100.00;62537.16;5049361;28;19921;-80
2022/12/23 03:27:39;;;;;;;;;;;0.70;86.90;;;-151.14;100.00;62537.16;5016537;28;19920;-80
2022/12/23 03:30:08;;;;;;;;;;;0.70;87.00;;;-151.14;100.00;62537.16;5032853;28;19927;-81
2022/12/23 03:32:39;;;;;;;;;;;0.70;87.00;;;-151.14;100.00;62537.16;5033225;28;19921;-80
2022/12/23 03:35:09;;;;;;;;;;;0.70;87.00;;;-151.14;100.00;62537.16;4993710;28;19921;-81
2022/12/23 03:37:38;;;;;;;;;;;0.70;87.00;;;-151.14;100.00;62537.16;4994095;28;20125;-80
2022/12/23 03:40:09;;;;;;;;;;;0.70;86.90;;;-151.14;100.00;62537.16;4994154;28;19922;-81
2022/12/23 03:42:37;;;;;;;;;;;0.70;87.00;;;-151.14;100.00;62537.16;4977817;28;19928;-80
2022/12/23 03:45:09;;;;;;;;;;;0.70;87.00;;;-151.14;100.00;62537.16;4993380;28;19936;-80
2022/12/23 03:47:38;;;;;;;;;;;0.70;87.00;;;-151.14;100.00;62537.16;4993888;28;19936;-81
2022/12/23 03:50:09;;;;;;;;;;;0.70;86.90;;;-151.14;100.00;62537.16;4977909;28;19928;-80
2022/12/23 03:52:40;;;;;;;;;;;0.70;86.90;;;-151.14;100.00;62537.16;4993784;28;19944;-80
2022/12/23 03:55:11;;;;;;;;;;;0.70;86.90;;;-151.14;100.00;62537.16;4993327;28;19921;-80
2022/12/23 03:57:42;;;;;;;;;;;0.70;87.00;;;-151.14;100.00;62537.16;4993773;28;19927;-80
2022/12/23 04:00:11;;;;;;;;;;;0.70;86.90;;;-151.14;100.00;62537.16;5013246;28;20235;-80
2022/12/23 04:02:41;;;;;;;;;;;0.70;87.00;;;-151.14;100.00;62537.16;4997438;28;19921;-81
2022/12/23 04:05:17;;;;;;;;;;;0.80;87.00;;;-151.14;100.00;62537.16;4996820;28;19921;-80
2022/12/23 04:07:46;;;;;;;;;;;0.70;86.90;;;-151.14;100.00;62537.16;4980791;28;19929;-80
2022/12/23 04:10:14;;;;;;;;;;;0.70;86.90;;;-151.14;100.00;62537.16;4997155;28;20136;-80
2022/12/23 04:12:42;;;;;;;;;;;0.70;86.90;;;-151.14;100.00;62537.16;4997111;28;19921;-80
2022/12/23 04:15:13;;;;;;;;;;;0.70;86.90;;;-151.14;100.00;62537.16;5009738;28;19929;-80
2022/12/23 04:17:41;;;;;;;;;;;0.70;87.00;;;-151.14;100.00;62537.16;5036372;28;20212;-80
2022/12/23 04:20:10;;;;;;;;;;;0.70;87.00;;;-151.14;100.00;62537.16;5036387;28;19921;-80
2022/12/23 04:22:42;;;;;;;;;;;0.70;87.00;;;-151.14;100.00;62537.16;5036261;28;20097;-80
2022/12/23 04:25:10;;;;;;;;;;;0.70;87.00;;;-151.14;100.00;62537.16;5019468;28;19920;-80
2022/12/23 04:27:38;;;;;;;;;;;0.70;87.00;;;-151.14;100.00;62537.16;5035889;28;19935;-80
2022/12/23 04:30:07;;;;;;;;;;;0.70;86.90;;;-151.14;100.00;62537.16;5019926;28;20217;-80
2022/12/23 04:32:35;;;;;;;;;;;0.70;86.90;;;-151.14;100.00;62537.16;5019813;28;19921;-80
2022/12/23 04:35:03;;;;;;;;;;;0.70;86.90;;;-151.14;100.00;62537.16;5008084;28;19928;-81
2022/12/23 04:37:30;;;;;;;;;;;0.70;86.90;;;-151.14;100.00;62537.16;5016247;28;19921;-81
2022/12/23 04:40:00;;;;;;;;;;;0.70;87.00;;;-151.14;100.00;62537.16;5000045;28;19921;-80
2022/12/23 04:42:28;;;;;;;;;;;0.70;86.90;;;-151.14;100.00;62537.16;5016048;28;19927;-81
2022/12/23 04:44:56;;;;;;;;;;;0.80;86.90;;;-151.14;100.00;62537.16;4999526;28;19921;-80
2022/12/23 04:47:23;;;;;;;;;;;0.70;86.90;;;-151.14;100.00;62537.16;5016152;28;20233;-81
2022/12/23 04:49:51;;;;;;;;;;;0.70;86.90;;;-151.14;100.00;62537.16;5016232;28;20121;-80
2022/12/23 04:52:19;;;;;;;;;;;0.70;86.90;;;-151.14;100.00;62537.16;5016389;28;19921;-80
2022/12/23 04:54:47;;;;;;;;;;;0.70;86.90;;;-151.14;100.00;62537.16;5015740;28;19943;-80
2022/12/23 04:57:16;;;;;;;;;;;0.70;86.90;;;-151.14;100.00;62537.16;5015838;28;19927;-80
2022/12/23 04:59:44;;;;;;;;;;;0.70;86.90;;;-151.14;100.00;62537.16;5021363;28;20238;-80
2022/12/23 05:02:12;;;;;;;;;;;0.70;87.70;;;-151.14;100.00;62537.16;5019200;28;19921;-81
2022/12/23 05:04:41;;;;;;;;;;;0.70;86.90;;;-151.14;100.00;62537.16;5018794;28;19920;-80
2022/12/23 05:07:09;;;;;;;;;;;0.70;87.00;;;-151.14;100.00;62537.16;5019329;28;19921;-81
2022/12/23 05:09:36;;;;;;;;;;;0.70;86.90;;;-151.14;100.00;62537.16;5033097;28;19941;-81
2022/12/23 05:12:04;;;;;;;;;;;0.70;87.00;;;-151.14;100.00;62537.16;5015420;28;20116;-80
2022/12/23 05:14:34;;;;;;;;;;;0.70;87.00;;;-151.14;100.00;62537.16;5015639;28;19929;-81
2022/12/23 05:17:02;;;;;;;;;;;0.70;87.00;;;-151.14;100.00;62537.16;5031735;28;19928;-80
2022/12/23 05:19:30;;;;;;;;;;;0.70;87.00;;;-151.14;100.00;62537.16;4999916;28;19921;-81
2022/12/23 05:21:58;;;;;;;;;;;0.70;87.00;;;-151.14;100.00;62537.16;5018935;28;20253;-81
2022/12/23 05:24:25;;;;;;;;;;;0.70;87.00;;;-151.14;100.00;62537.16;5018782;28;19921;-80
2022/12/23 05:26:53;;;;;;;;;;;0.70;87.00;;;-151.14;100.00;62537.16;5018587;28;19920;-80
2022/12/23 05:29:21;;;;;;;;;;;0.70;87.00;;;-151.14;100.00;62537.16;5035247;28;19920;-81
2022/12/23 05:31:51;;;;;;;;;;;0.70;87.00;;;-151.14;100.00;62537.16;5000827;28;20124;-80
2022/12/23 05:34:19;;;;;;;;;;;0.70;87.00;;;-151.14;100.00;62537.16;5015436;28;19921;-81
2022/12/23 05:36:47;;;;;;;;;;;0.70;87.00;;;-151.14;100.00;62537.16;4998807;28;19925;-81
2022/12/23 05:39:15;;;;;;;;;;;0.70;87.10;;;-151.14;100.00;62537.16;4999050;28;19921;-80
2022/12/23 05:41:43;;;;;;;;;;;0.70;87.10;;;-151.14;100.00;62537.16;5015595;28;20366;-80
2022/12/23 05:44:10;;;;;;;;;;;0.70;87.00;;;-151.14;100.00;62537.16;5032939;28;20120;-81
2022/12/23 05:46:38;;;;;;;;;;;0.70;87.00;;;-151.14;100.00;62537.16;5029351;28;19927;-80
2022/12/23 05:49:08;;;;;;;;;;;0.80;87.10;;;-151.14;100.00;62537.16;5018289;28;19921;-80
2022/12/23 05:51:36;;;;;;;;;;;0.70;87.10;;;-151.14;100.00;62537.16;5004838;28;19935;-81
2022/12/23 05:54:04;;;;;;;;;;;0.70;87.00;;;-151.14;100.00;62537.16;4998861;28;20216;-81
2022/12/23 05:56:32;;;;;;;;;;;0.70;87.00;;;-151.14;100.00;62537.16;5044461;28;20231;-81
2022/12/23 05:59:00;;;;;;;;;;;0.70;87.00;;;-151.14;100.00;62537.16;5034899;28;19920;-81
2022/12/23 06:01:28;;;;;;;;;;;0.70;87.10;;;-151.14;100.00;62537.16;5023478;28;20131;-80
2022/12/23 06:03:55;;;;;;;;;;;0.70;87.10;;;-151.14;100.00;62537.16;5014659;28;19921;-80
2022/12/23 06:06:25;;;;;;;;;;;0.70;87.00;;;-151.14;100.00;62537.16;5014810;28;19921;-81
2022/12/23 06:08:53;;;;;;;;;;;0.70;87.00;;;-151.14;100.00;62537.16;4998791;28;19927;-81
2022/12/23 06:11:21;;;;;;;;;;;0.70;87.00;;;-151.14;100.00;62537.16;4998670;28;19927;-80
2022/12/23 06:13:49;;;;;;;;;;;0.70;87.10;;;-151.14;100.00;62537.16;5014861;28;19928;-81
2022/12/23 06:16:17;;;;;;;;;;;0.70;87.00;;;-151.14;100.00;62537.16;5030934;28;19921;-81
2022/12/23 06:18:44;;;;;;;;;;;0.70;87.00;;;-151.14;100.00;62537.16;4998454;28;19921;-81
2022/12/23 06:21:12;;;;;;;;;;;0.70;87.10;;;-151.14;100.00;62537.16;4998433;28;20235;-81
2022/12/23 06:23:42;;;;;;;;;;;0.70;87.80;;;-151.14;100.00;62537.16;4997812;28;20116;-81
2022/12/23 06:26:10;;;;;;;;;;;0.70;87.00;;;-151.14;100.00;62537.16;5019343;28;19927;-80
2022/12/23 06:28:38;;;;;;;;;;;0.70;87.00;;;-151.14;100.00;62537.16;5034259;28;19921;-81
2022/12/23 06:31:05;;;;;;;;;;;0.70;87.00;;;-151.14;100.00;62537.16;5014127;28;19921;-81
2022/12/23 06:33:33;;;;;;;;;;;0.70;87.10;;;-151.14;100.00;62537.16;5014226;28;19925;-81
2022/12/23 06:36:01;;;;;;;;;;;0.70;87.10;;;-151.14;100.00;62537.16;4997901;28;19926;-80
2022/12/23 06:38:29;;;;;;;;;;;0.70;87.10;;;-151.14;100.00;62537.16;4997962;28;20094;-80
2022/12/23 06:40:59;;;;;;;;;;;0.70;87.00;;;-151.14;100.00;62537.16;5014677;28;20313;-80
2022/12/23 06:43:27;;;;;;;;;;;0.80;87.00;;;-151.14;100.00;62537.16;5014357;28;19935;-80
2022/12/23 06:45:54;;;;;;;;;;;0.70;87.00;;;-151.14;100.00;62537.16;4997852;28;19921;-81
2022/12/23 06:48:22;;;;;;;;;;;0.80;87.10;;;-151.14;100.00;62537.16;4998021;28;19928;-81
2022/12/23 06:50:50;;;;;;;;;;;0.80;87.00;;;-151.14;100.00;62537.16;5030962;28;19927;-81
2022/12/23 06:53:18;;;;;;;;;;;0.80;87.00;;;-151.14;100.00;62537.16;5014224;28;19921;-80
2022/12/23 06:55:46;;;;;;;;;;;0.80;87.00;;;-151.14;100.00;62537.16;5030191;28;19927;-81
2022/12/23 06:58:16;;;;;;;;;;;0.80;87.00;;;-151.14;100.00;62537.16;5014205;28;19921;-80
2022/12/23 07:00:43;;;;;;;;;;;0.80;87.00;;;-151.14;100.00;62537.16;5014147;28;20120;-80
2022/12/23 07:03:11;;;;;;;;;;;0.80;87.00;;;-151.14;100.00;62537.16;5014344;28;19927;-80
2022/12/23 07:05:39;;;;;;;;;;;0.80;87.00;;;-151.14;100.00;62537.16;5013502;28;19929;-80
2022/12/23 07:08:07;;;;;;;;;;;0.80;87.00;;;-151.14;100.00;62537.16;4997619;28;19921;-80
2022/12/23 07:10:35;;;;;;;;;;;0.80;87.00;;;-151.14;100.00;62537.16;4997887;28;20214;-81
2022/12/23 07:13:03;;;;;;;;;;;0.80;87.00;;;-151.14;100.00;62537.16;5014103;28;19925;-81
2022/12/23 07:15:33;;;;;;;;;;;0.80;86.90;;;-151.14;100.00;62537.16;5013470;28;19922;-80
2022/12/23 07:18:01;;;;;;;;;;;0.80;87.00;;;-151.14;100.00;62537.16;5031467;28;19943;-80
2022/12/23 07:20:28;;;;;;;;;;;0.80;86.90;;;-151.14;100.00;62537.16;5013952;28;20213;-80
2022/12/23 07:22:59;;;;;;;;;;;0.80;86.90;;;-151.14;100.00;62537.16;5013978;28;20201;-80
2022/12/23 07:25:28;;;;;;;;;;;0.80;86.90;;;-151.14;100.00;62537.16;5030816;28;19927;-80
2022/12/23 07:27:55;;;;;;;;;;;0.80;86.80;;;-151.14;100.00;62537.16;5013951;28;20029;-81
2022/12/23 07:30:24;;;;;;;;;;;0.80;86.80;;;-151.14;100.00;62537.16;5013823;28;20113;-80
2022/12/23 07:32:53;;;;;;;;;;;0.80;86.80;;;-151.14;100.00;62537.16;5030093;28;19922;-80
2022/12/23 07:35:21;;;;;;;;;;;0.80;86.80;;;-151.14;100.00;62537.16;4998825;28;19927;-80
2022/12/23 07:37:51;;;;;;;;;;;0.80;86.70;;;-151.14;100.00;62537.16;5017504;28;19921;-80
2022/12/23 07:40:19;;;;;;;;;;;0.80;86.80;;;-151.14;100.00;62537.16;5017441;28;19921;-80
2022/12/23 07:42:48;;;;;;;;;;;0.80;86.70;;;-151.14;100.00;62537.16;5017278;28;19921;-80
2022/12/23 07:45:16;;;;;;;;;;;0.80;86.70;;;-151.14;100.00;62537.16;5016908;28;20113;-80
2022/12/23 07:47:44;;;;;;;;;;;0.90;86.70;;;-151.14;100.00;62537.16;5000559;28;20097;-80
2022/12/23 07:50:14;;;;;;;;;;;0.90;86.70;;;-151.14;100.00;62537.16;5000682;28;20209;-80
2022/12/23 07:52:42;;;;;;;;;;;0.90;86.70;;;-151.14;100.00;62537.16;5017111;28;20094;-80
2022/12/23 07:55:10;;;;;;;;;;;0.90;86.60;;;-151.14;100.00;62537.16;5032844;28;20098;-79
2022/12/23 07:57:38;;;;;;;;;;;0.90;86.50;;;-151.14;100.00;62537.16;5000395;28;20128;-80
2022/12/23 08:00:07;;;;;;;;;;;0.90;86.60;;;-151.14;100.00;62537.16;5016842;28;19943;-80
2022/12/23 08:02:42;;;;;;;;;;;0.90;86.60;;;-151.14;100.00;62537.16;5000783;28;19927;-80
2022/12/23 08:05:10;;;;;;;;;;;0.90;86.50;;;-151.14;100.00;62537.16;5016425;28;19922;-80
2022/12/23 08:07:39;;;;;;;;;;;0.90;86.60;;;-151.14;100.00;62537.16;5034047;28;19922;-80
2022/12/23 08:10:08;;;;;;;;;;;0.90;86.50;;;-151.14;100.00;62537.16;5017046;28;20209;-80
2022/12/23 08:12:36;;;;;;;;;;;0.90;86.60;;;-151.14;100.00;62537.16;5016554;28;19921;-80
2022/12/23 08:15:08;;;;;;;;;;;0.90;86.70;;;-151.14;100.00;62537.16;4999821;28;19927;-80
2022/12/23 08:17:39;;;;;;;;;;;0.90;86.70;;;-151.14;100.00;62537.16;5000515;28;19921;-80
2022/12/23 08:20:13;;;;;;;;;;;0.90;86.70;;;-151.14;100.00;62537.16;5000247;28;19922;-80
2022/12/23 08:22:42;;;;;;;;;;;0.90;86.60;;;-151.14;100.00;62537.16;5016574;28;19921;-80
2022/12/23 08:25:17;;;;;;;;;;;0.90;86.60;;;-151.14;100.00;62537.16;5016049;28;20120;-80
2022/12/23 08:28:00;;;;;;;;;;;0.90;86.50;;;-151.14;100.00;62537.16;5000058;28;19928;-80
2022/12/23 08:30:29;;;;;;;;;;;0.90;86.50;;;-151.14;100.00;62537.16;5000113;28;19922;-80
2022/12/23 08:33:02;;;;;;;;;;;0.90;86.50;;;-151.14;100.00;62537.16;5000421;28;19928;-80
2022/12/23 08:35:30;;;;;;;;;;;0.90;86.40;;;-151.14;100.00;62537.16;5015828;28;19921;-80
2022/12/23 08:38:06;;;;;;;;;;;1.00;86.40;;;-151.14;100.00;62537.16;5033709;28;20133;-80
2022/12/23 08:40:39;;;;;;;;;;;1.00;86.40;;;-151.14;100.00;62537.16;5000251;28;19943;-79
2022/12/23 08:43:08;;;;;;;;;;;1.00;86.40;;;-151.14;100.00;62537.16;4999939;28;19922;-80
2022/12/23 08:45:37;;;;;;;;;;;0.90;86.40;;;-151.14;100.00;62537.16;5014967;28;19921;-80
2022/12/23 08:48:05;;;;;;;;;;;0.90;86.40;;;-151.14;100.00;62537.16;5017769;28;19921;-80
2022/12/23 08:50:37;;;;;;;;;;;0.90;86.40;;;-151.14;100.00;62537.16;5054062;28;19920;-80
2022/12/23 08:53:07;;;;;;;;;;;1.00;86.40;;;-151.14;100.00;62537.16;5034494;28;19920;-80
2022/12/23 08:55:38;;;;;;;;;;;0.90;86.40;;;-151.14;100.00;62537.16;5015756;28;19927;-80
2022/12/23 08:58:07;;;;;;;;;;;0.90;86.40;;;-151.14;100.00;62537.16;5016184;28;19921;-80
2022/12/23 09:00:38;;;;;;;;;;;0.90;86.40;;;-151.14;100.00;62537.16;4999791;28;19921;-80
2022/12/23 09:03:06;;;;;;;;;;;1.00;86.40;;;-151.14;100.00;62537.16;5015980;28;19936;-80
2022/12/23 09:05:34;;;;;;;;;;;1.00;86.50;;;-151.14;100.00;62537.16;5014831;28;19943;-80
2022/12/23 09:08:05;;;;;;;;;;;1.00;86.50;;;-151.14;100.00;62537.16;4999552;28;19921;-79
2022/12/23 09:10:35;;;;;;;;;;;0.90;86.40;;;-151.14;100.00;62537.16;4999700;28;20120;-80
2022/12/23 09:13:03;;;;;;;;;;;1.00;86.40;;;-151.14;100.00;62537.16;5015971;28;19921;-80
2022/12/23 09:15:31;;;;;;;;;;;1.00;86.40;;;-151.14;100.00;62537.16;5032911;28;19928;-80
2022/12/23 09:18:02;;;;;;;;;;;1.00;86.40;;;-151.14;100.00;62537.16;4999556;28;19943;-80
2022/12/23 09:20:30;;;;;;;;;;;1.00;86.40;;;-151.14;100.00;62537.16;4999536;28;19921;-80
2022/12/23 09:22:59;;;;;;;;;;;0.90;86.40;;;-151.14;100.00;62537.16;5015644;28;19921;-80
2022/12/23 09:25:27;;;;;;;;;;;1.00;86.50;;;-151.14;100.00;62537.16;5032266;28;19921;-80
2022/12/23 09:27:56;;;;;;;;;;;1.00;86.50;;;-151.14;100.00;62537.16;4999435;28;19921;-80
2022/12/23 09:30:24;;;;;;;;;;;0.90;86.50;;;-151.14;100.00;62537.16;5015716;28;19921;-79
2022/12/23 09:32:52;;;;;;;;;;;0.90;86.50;;;-151.14;100.00;62537.16;5015864;28;19928;-79
2022/12/23 09:35:20;;;;;;;;;;;0.90;86.50;;;-151.14;100.00;62537.16;5015118;28;19921;-79
2022/12/23 09:37:48;;;;;;;;;;;1.00;86.50;;;-151.14;100.00;62537.16;4998981;28;19921;-80
2022/12/23 09:40:16;;;;;;;;;;;1.00;86.50;;;-151.14;100.00;62537.16;5033803;28;19921;-79
2022/12/23 09:42:50;;;;;;;;;;;0.90;86.50;;;-151.14;100.00;62537.16;5015479;28;19927;-80
2022/12/23 09:45:25;;;;;;;;;;;0.90;86.50;;;-151.14;100.00;62537.16;5044712;28;19930;-80
2022/12/23 09:47:54;;;;;;;;;;;0.90;86.50;;;-151.14;100.00;62537.16;5034987;28;20121;-80
2022/12/23 09:50:25;;;;;;;;;;;1.00;86.50;;;-151.14;100.00;62537.16;5006520;28;19921;-80
2022/12/23 09:52:57;;;;;;;;;;;1.00;86.50;;;-151.14;100.00;62537.16;5015114;28;19921;-80
2022/12/23 09:55:30;;;;;;;;;;;1.00;86.50;;;-151.14;100.00;62537.16;5014739;28;19921;-80
2022/12/23 09:58:05;;;;;;;;;;;1.00;86.50;;;-151.14;100.00;62537.16;5031690;28;19921;-80
2022/12/23 10:00:37;;;;;;;;;;;1.00;86.60;;;-151.14;100.00;62537.16;4998851;28;19921;-80
2022/12/23 10:03:13;;;;;;;;;;;1.00;86.50;;;-151.14;100.00;62537.16;4999219;28;19921;-79
2022/12/23 10:05:47;;;;;;;;;;;1.00;86.50;;;-151.14;100.00;62537.16;5014754;28;19921;-80
2022/12/23 10:08:17;;;;;;;;;;;1.00;86.50;;;-151.14;100.00;62537.16;5015009;28;20213;-80
2022/12/23 10:10:51;;;;;;;;;;;1.00;86.40;;;-151.14;100.00;62537.16;5014995;28;19929;-80
2022/12/23 10:13:24;;;;;;;;;;;1.00;86.50;;;-151.14;100.00;62537.16;5014716;28;20231;-79
2022/12/23 10:15:54;;;;;;;;;;;1.00;86.50;;;-151.14;100.00;62537.16;5027475;28;19920;-80
2022/12/23 10:18:25;;;;;;;;;;;1.00;86.50;;;-151.14;100.00;62537.16;5018207;28;20234;-80
2022/12/23 10:20:54;;;;;;;;;;;1.00;86.50;;;-151.14;100.00;62537.16;5018135;28;19921;-79
2022/12/23 10:23:27;;;;;;;;;;;1.00;86.50;;;-151.14;100.00;62537.16;5034497;28;19943;-80
2022/12/23 10:25:55;;;;;;;;;;;1.00;86.50;;;-151.14;100.00;62537.16;5034176;28;19927;-80
2022/12/23 10:28:23;;;;;;;;;;;1.00;86.50;;;-151.14;100.00;62537.16;5017766;28;19927;-80
2022/12/23 10:31:01;;;;;;;;;;;1.00;86.50;;;-151.14;100.00;62537.16;5017972;28;19927;-80
2022/12/23 10:33:34;;;;;;;;;;;1.00;87.30;;;-151.14;100.00;62537.16;5017638;28;19921;-79
2022/12/23 10:36:05;;;;;;;;;;;1.00;86.50;;;-151.14;100.00;62537.16;5005892;28;19921;-80
2022/12/23 10:38:39;;;;;;;;;;;1.00;86.50;;;-151.14;100.00;62537.16;5014736;28;19927;-80
2022/12/23 10:41:15;;;;;;;;;;;1.00;86.50;;;-151.14;100.00;62537.16;5032149;28;19921;-80
2022/12/23 10:43:53;;;;;;;;;;;1.00;86.60;;;-151.14;100.00;62537.16;5014502;28;19921;-80
2022/12/23 10:46:28;;;;;;;;;;;1.00;86.50;;;-151.14;100.00;62537.16;5011043;28;20205;-80
2022/12/23 10:49:01;;;;;;;;;;;1.00;86.60;;;-151.14;100.00;62537.16;5033390;28;20460;-80
2022/12/23 10:51:31;;;;;;;;;;;1.00;86.50;;;-151.14;100.00;62537.16;5004306;28;19927;-80
2022/12/23 10:54:01;;;;;;;;;;;1.00;86.50;;;-151.14;100.00;62537.16;4997863;28;19980;-80
2022/12/23 10:56:29;;;;;;;;;;;1.00;86.50;;;-151.14;100.00;62537.16;4997783;28;19921;-80
2022/12/23 10:58:58;;;;;;;;;;;1.00;86.50;;;-151.14;100.00;62537.16;4998111;28;19928;-80
2022/12/23 11:01:28;;;;;;;;;;;1.00;86.60;;;-151.14;100.00;62537.16;5014206;28;19921;-80
2022/12/23 11:04:01;;;;;;;;;;;1.00;86.50;;;-151.14;100.00;62537.16;5014086;28;20213;-80
2022/12/23 11:06:29;;;;;;;;;;;1.00;86.50;;;-151.14;100.00;62537.16;5013924;28;19921;-80
2022/12/23 11:08:57;;;;;;;;;;;1.00;86.50;;;-151.14;100.00;62537.16;5014157;28;19921;-79
2022/12/23 11:11:25;;;;;;;;;;;1.00;86.50;;;-151.14;100.00;62537.16;5014029;28;20117;-80
2022/12/23 11:13:53;;;;;;;;;;;1.00;86.50;;;-151.14;100.00;62537.16;5014037;28;19921;-80
2022/12/23 11:16:23;;;;;;;;;;;1.00;86.50;;;-151.14;100.00;62537.16;5014036;28;20212;-80
2022/12/23 11:19:00;;;;;;;;;;;1.00;86.50;;;-151.14;100.00;62537.16;4997776;28;19921;-80
2022/12/23 11:21:29;;;;;;;;;;;1.00;86.50;;;-151.14;100.00;62537.16;5031485;28;19921;-80
2022/12/23 11:24:08;;;;;;;;;;;1.00;86.60;;;-151.14;100.00;62537.16;5013582;28;19927;-80
2022/12/23 11:26:36;;;;;;;;;;;1.00;86.50;;;-151.14;100.00;62537.16;5013563;28;20209;-80
2022/12/23 11:29:06;;;;;;;;;;;1.00;86.50;;;-151.14;100.00;62537.16;5014141;28;19927;-80
2022/12/23 11:31:34;;;;;;;;;;;1.00;86.50;;;-151.14;100.00;62537.16;4997421;28;19927;-80
2022/12/23 11:34:05;;;;;;;;;;;1.00;86.60;;;-151.14;100.00;62537.16;5013842;28;19927;-80
2022/12/23 11:36:33;;;;;;;;;;;1.00;87.40;;;-151.14;100.00;62537.16;4997181;28;19921;-80
2022/12/23 11:39:17;;;;;;;;;;;1.00;86.50;;;-151.14;100.00;62537.16;5014016;28;19921;-80
2022/12/23 11:41:46;;;;;;;;;;;1.00;86.60;;;-151.14;100.00;62537.16;5031292;28;19921;-80
2022/12/23 11:44:19;;;;;;;;;;;1.00;86.50;;;-151.14;100.00;62537.16;5013601;28;19921;-80